Time;durP1;ratioP1;P1;durP2;ratioP2;P2;SDS_P1;SDS_P2;PMS_P1;PMS_P2;Temp;Humidity;BMP_temperature;BMP_pressure;BME280_temperature;BME280_humidity;BME280_pressure;Samples;Min_cycle;Max_cycle;Signal;HPM_P1;HPM_P2
2022/11/20 00:00:21;;;;;;;43.95;25.25;;;;;;;;;;6276772;22;20094;-73
2022/11/20 00:02:49;;;;;;;43.78;25.77;;;;;;;;;;6276585;22;20454;-73
2022/11/20 00:05:16;;;;;;;42.55;24.45;;;;;;;;;;6276492;22;20011;-73
2022/11/20 00:07:44;;;;;;;39.72;24.25;;;;;;;;;;6276215;22;20074;-72
2022/11/20 00:10:12;;;;;;;42.08;24.45;;;;;;;;;;6249684;22;20099;-73
2022/11/20 00:12:39;;;;;;;41.78;23.65;;;;;;;;;;6276431;22;20397;-73
2022/11/20 00:15:07;;;;;;;43.92;23.15;;;;;;;;;;6276516;22;20019;-73
2022/11/20 00:17:34;;;;;;;40.83;22.13;;;;;;;;;;6276446;22;20039;-73
2022/11/20 00:20:02;;;;;;;40.55;24.52;;;;;;;;;;6276416;22;20016;-73
2022/11/20 00:22:29;;;;;;;42.80;23.40;;;;;;;;;;6276403;22;20019;-73
2022/11/20 00:24:57;;;;;;;40.60;24.00;;;;;;;;;;6276509;22;20012;-73
2022/11/20 00:27:25;;;;;;;39.90;22.50;;;;;;;;;;6276148;22;20027;-73
2022/11/20 00:29:52;;;;;;;41.00;23.48;;;;;;;;;;6276442;22;20071;-74
2022/11/20 00:32:19;;;;;;;37.95;23.23;;;;;;;;;;6276471;22;20016;-73
2022/11/20 00:34:47;;;;;;;40.90;23.50;;;;;;;;;;6276494;22;20042;-73
2022/11/20 00:37:14;;;;;;;41.97;22.40;;;;;;;;;;6276444;22;20038;-73
2022/11/20 00:39:42;;;;;;;33.58;20.27;;;;;;;;;;6276276;22;20058;-73
2022/11/20 00:42:09;;;;;;;34.65;21.08;;;;;;;;;;6276251;22;20016;-73
2022/11/20 00:44:37;;;;;;;32.67;19.98;;;;;;;;;;6276307;22;20054;-73
2022/11/20 00:47:04;;;;;;;35.50;20.52;;;;;;;;;;6276378;22;20066;-73
2022/11/20 00:49:31;;;;;;;31.70;18.98;;;;;;;;;;6276345;22;20441;-73
2022/11/20 00:51:59;;;;;;;31.67;19.25;;;;;;;;;;6276295;22;20342;-73
2022/11/20 00:54:26;;;;;;;30.90;18.10;;;;;;;;;;6276263;22;20015;-72
2022/11/20 00:56:54;;;;;;;33.17;18.90;;;;;;;;;;6276278;22;20330;-73
2022/11/20 00:59:21;;;;;;;32.15;19.83;;;;;;;;;;6276228;22;20047;-73
2022/11/20 01:01:49;;;;;;;30.40;18.63;;;;;;;;;;6276217;22;20365;-73
2022/11/20 01:04:16;;;;;;;31.70;18.65;;;;;;;;;;6276075;22;20047;-73
2022/11/20 01:06:44;;;;;;;31.17;18.63;;;;;;;;;;6276142;22;20038;-73
2022/11/20 01:09:13;;;;;;;29.95;19.52;;;;;;;;;;6276083;22;20011;-73
2022/11/20 01:11:42;;;;;;;31.13;18.85;;;;;;;;;;6276139;22;20547;-73
2022/11/20 01:14:16;;;;;;;30.60;18.67;;;;;;;;;;6276002;22;20014;-73
2022/11/20 01:16:45;;;;;;;32.85;18.77;;;;;;;;;;6248877;22;20445;-73
2022/11/20 01:19:15;;;;;;;33.72;20.73;;;;;;;;;;6275741;22;20065;-73
2022/11/20 01:21:45;;;;;;;35.42;19.33;;;;;;;;;;6276285;22;20034;-73
2022/11/20 01:24:14;;;;;;;31.33;19.13;;;;;;;;;;6276001;22;20016;-73
2022/11/20 01:26:42;;;;;;;31.40;20.05;;;;;;;;;;6276004;22;20058;-73
2022/11/20 01:29:20;;;;;;;32.92;20.02;;;;;;;;;;6275744;22;20015;-73
2022/11/20 01:31:48;;;;;;;31.45;18.77;;;;;;;;;;6275808;22;20073;-73
2022/11/20 01:34:17;;;;;;;33.08;20.42;;;;;;;;;;6275872;22;20020;-73
2022/11/20 01:36:44;;;;;;;30.75;20.05;;;;;;;;;;6275939;22;20011;-73
2022/11/20 01:39:19;;;;;;;31.98;19.88;;;;;;;;;;6275738;22;20051;-73
2022/11/20 01:44:57;;;;;;;36.70;22.20;;;;;;;;;;6275760;22;20016;-74
2022/11/20 01:47:27;;;;;;;38.40;21.55;;;;;;;;;;6275943;22;20019;-73
2022/11/20 01:50:01;;;;;;;36.97;20.80;;;;;;;;;;6248966;22;20042;-73
2022/11/20 01:52:38;;;;;;;36.47;22.15;;;;;;;;;;6249329;22;20373;-74
2022/11/20 01:55:08;;;;;;;37.45;22.92;;;;;;;;;;6277952;22;20589;-73
2022/11/20 01:57:36;;;;;;;37.33;23.13;;;;;;;;;;6251541;22;20073;-74
2022/11/20 02:00:06;;;;;;;36.67;22.42;;;;;;;;;;6277700;22;20477;-73
2022/11/20 02:02:41;;;;;;;37.25;23.55;;;;;;;;;;6277854;22;20081;-74
2022/11/20 02:05:35;;;;;;;44.03;23.83;;;;;;;;;;6278271;22;20030;-74
2022/11/20 02:08:03;;;;;;;38.65;23.10;;;;;;;;;;6273328;22;20446;-74
2022/11/20 02:10:31;;;;;;;38.45;23.25;;;;;;;;;;6277738;22;20011;-75
2022/11/20 02:15:46;;;;;;;42.60;24.33;;;;;;;;;;6277867;22;20019;-74
2022/11/20 02:18:15;;;;;;;46.75;26.35;;;;;;;;;;6277779;22;20016;-73
2022/11/20 02:20:44;;;;;;;48.13;26.52;;;;;;;;;;6277767;22;20026;-74
2022/11/20 02:23:38;;;;;;;46.08;25.75;;;;;;;;;;6277751;22;20042;-73
2022/11/20 02:26:07;;;;;;;47.15;25.77;;;;;;;;;;6232211;22;20043;-73
2022/11/20 02:28:35;;;;;;;61.03;27.30;;;;;;;;;;6277644;22;20024;-73
2022/11/20 02:31:03;;;;;;;51.97;26.15;;;;;;;;;;6277508;22;20039;-73
2022/11/20 02:33:31;;;;;;;50.33;27.65;;;;;;;;;;6277672;22;20070;-74
2022/11/20 02:35:58;;;;;;;47.28;25.73;;;;;;;;;;6277643;22;20034;-72
2022/11/20 02:38:25;;;;;;;47.28;26.52;;;;;;;;;;6250372;22;20354;-74
2022/11/20 02:40:53;;;;;;;50.10;27.73;;;;;;;;;;6277819;22;20371;-73
2022/11/20 02:43:22;;;;;;;52.92;28.88;;;;;;;;;;6277472;22;20476;-72
2022/11/20 02:45:50;;;;;;;48.47;25.45;;;;;;;;;;6277571;22;20015;-73
2022/11/20 02:48:17;;;;;;;55.00;30.08;;;;;;;;;;6277402;22;20358;-73
2022/11/20 02:50:45;;;;;;;54.85;29.88;;;;;;;;;;6277850;22;20012;-74
2022/11/20 02:53:12;;;;;;;52.38;29.17;;;;;;;;;;6277377;22;20446;-74
2022/11/20 02:55:40;;;;;;;53.70;28.90;;;;;;;;;;6277411;22;20008;-73
2022/11/20 02:58:08;;;;;;;53.60;28.63;;;;;;;;;;6277408;22;20338;-73
2022/11/20 03:00:35;;;;;;;52.97;29.10;;;;;;;;;;6277083;22;20353;-73
2022/11/20 03:03:02;;;;;;;58.70;30.23;;;;;;;;;;6277176;22;20022;-73
2022/11/20 03:05:30;;;;;;;54.65;29.10;;;;;;;;;;6276741;22;20015;-74
2022/11/20 03:07:57;;;;;;;52.92;28.23;;;;;;;;;;6277147;22;20438;-74
2022/11/20 03:10:25;;;;;;;52.90;28.90;;;;;;;;;;6276909;22;20016;-74
2022/11/20 03:12:56;;;;;;;56.63;30.05;;;;;;;;;;6277042;22;20015;-74
2022/11/20 03:15:24;;;;;;;57.28;30.67;;;;;;;;;;6277147;22;20023;-73
2022/11/20 03:17:55;;;;;;;52.75;29.48;;;;;;;;;;6277016;22;20381;-74
2022/11/20 03:20:23;;;;;;;55.83;29.33;;;;;;;;;;6277029;22;20020;-74
2022/11/20 03:22:51;;;;;;;53.03;30.88;;;;;;;;;;6277074;22;20373;-74
2022/11/20 03:25:18;;;;;;;58.25;30.45;;;;;;;;;;6277181;22;20082;-74
2022/11/20 03:27:45;;;;;;;56.58;30.55;;;;;;;;;;6276939;22;20034;-73
2022/11/20 03:30:13;;;;;;;59.85;29.63;;;;;;;;;;6276715;22;20027;-74
2022/11/20 03:32:41;;;;;;;53.50;30.27;;;;;;;;;;6277360;22;20019;-73
2022/11/20 03:35:08;;;;;;;54.20;28.02;;;;;;;;;;6276923;22;20077;-73
2022/11/20 03:37:36;;;;;;;58.33;31.40;;;;;;;;;;6276925;22;20011;-74
2022/11/20 03:40:04;;;;;;;60.92;30.88;;;;;;;;;;6276928;22;20023;-74
2022/11/20 03:42:47;;;;;;;64.00;30.17;;;;;;;;;;6276893;22;20460;-75
2022/11/20 03:45:15;;;;;;;53.05;30.52;;;;;;;;;;6276935;22;20016;-74
2022/11/20 03:47:43;;;;;;;57.22;30.83;;;;;;;;;;6276814;22;20438;-73
2022/11/20 03:50:12;;;;;;;58.97;31.63;;;;;;;;;;6276847;22;20020;-74
2022/11/20 03:52:40;;;;;;;67.38;31.88;;;;;;;;;;6276862;22;20511;-74
2022/11/20 03:55:08;;;;;;;54.67;29.92;;;;;;;;;;6276862;22;20029;-74
2022/11/20 03:57:35;;;;;;;63.90;34.30;;;;;;;;;;6276739;22;20069;-75
2022/11/20 04:00:03;;;;;;;60.90;32.90;;;;;;;;;;6276581;22;20020;-74
2022/11/20 04:02:31;;;;;;;57.30;32.47;;;;;;;;;;6250305;22;20024;-73
2022/11/20 04:04:58;;;;;;;63.42;31.65;;;;;;;;;;6276797;22;20019;-74
2022/11/20 04:07:26;;;;;;;64.72;32.75;;;;;;;;;;6249944;22;20546;-73
2022/11/20 04:09:53;;;;;;;60.40;32.28;;;;;;;;;;6276425;22;20400;-73
2022/11/20 04:12:23;;;;;;;61.22;33.47;;;;;;;;;;6249504;22;20384;-73
2022/11/20 04:14:50;;;;;;;59.33;31.73;;;;;;;;;;6276595;22;20085;-74
2022/11/20 04:17:17;;;;;;;60.40;30.70;;;;;;;;;;6249549;22;20020;-74
2022/11/20 04:19:45;;;;;;;68.75;33.33;;;;;;;;;;6276439;22;20023;-74
2022/11/20 04:22:13;;;;;;;57.60;30.63;;;;;;;;;;6276437;22;20069;-74
2022/11/20 04:24:40;;;;;;;64.22;32.70;;;;;;;;;;6276427;22;20086;-74
2022/11/20 04:27:07;;;;;;;59.30;30.92;;;;;;;;;;6276095;22;20463;-75
2022/11/20 04:29:35;;;;;;;55.85;30.35;;;;;;;;;;6276200;22;20038;-74
2022/11/20 04:32:02;;;;;;;58.38;29.67;;;;;;;;;;6276342;22;20020;-74
2022/11/20 04:34:30;;;;;;;59.72;31.05;;;;;;;;;;6276317;22;20012;-75
2022/11/20 04:36:57;;;;;;;55.72;28.95;;;;;;;;;;6276480;22;20054;-75
2022/11/20 04:39:27;;;;;;;52.80;29.30;;;;;;;;;;6276031;22;20022;-73
2022/11/20 04:44:41;;;;;;;53.45;28.33;;;;;;;;;;6276383;22;20019;-75
2022/11/20 04:47:08;;;;;;;50.15;27.92;;;;;;;;;;6276540;22;20024;-73
2022/11/20 04:49:36;;;;;;;49.83;28.83;;;;;;;;;;6249375;22;20020;-75
2022/11/20 04:52:03;;;;;;;57.92;30.15;;;;;;;;;;6276080;22;20012;-73
2022/11/20 04:54:31;;;;;;;57.00;30.17;;;;;;;;;;6276502;22;20077;-75
2022/11/20 04:56:58;;;;;;;51.45;28.77;;;;;;;;;;6276186;22;20026;-74
2022/11/20 04:59:26;;;;;;;55.88;29.17;;;;;;;;;;6224110;22;20043;-74
2022/11/20 05:01:56;;;;;;;52.85;28.60;;;;;;;;;;6276256;22;20086;-75
2022/11/20 05:04:24;;;;;;;52.20;29.08;;;;;;;;;;6276050;22;20015;-75
2022/11/20 05:06:51;;;;;;;53.95;28.70;;;;;;;;;;6275856;22;20388;-74
2022/11/20 05:09:18;;;;;;;51.53;28.08;;;;;;;;;;6275957;22;20049;-74
2022/11/20 05:11:53;;;;;;;53.92;27.88;;;;;;;;;;6276140;22;20043;-74
2022/11/20 05:14:20;;;;;;;50.72;28.20;;;;;;;;;;6276051;22;20022;-74
2022/11/20 05:16:48;;;;;;;47.70;27.23;;;;;;;;;;6276019;22;20450;-75
2022/11/20 05:19:16;;;;;;;50.22;25.48;;;;;;;;;;6276054;22;20035;-73
2022/11/20 05:21:43;;;;;;;47.80;25.60;;;;;;;;;;6275959;22;20047;-73
2022/11/20 05:24:10;;;;;;;47.45;26.20;;;;;;;;;;6276086;22;20011;-72
2022/11/20 05:26:38;;;;;;;44.28;26.08;;;;;;;;;;6275976;22;20065;-72
2022/11/20 05:29:05;;;;;;;44.30;22.42;;;;;;;;;;6276011;22;20012;-72
2022/11/20 05:31:33;;;;;;;39.15;21.83;;;;;;;;;;6275755;22;20023;-75
2022/11/20 05:34:00;;;;;;;45.42;22.83;;;;;;;;;;6275980;22;20460;-72
2022/11/20 05:36:27;;;;;;;42.58;23.70;;;;;;;;;;6276063;22;20023;-73
2022/11/20 05:38:55;;;;;;;39.97;21.13;;;;;;;;;;6275927;22;20012;-72
2022/11/20 05:41:28;;;;;;;34.33;18.52;;;;;;;;;;6250558;22;20020;-73
2022/11/20 05:43:57;;;;;;;36.95;19.73;;;;;;;;;;6275923;22;20428;-73
2022/11/20 05:46:24;;;;;;;34.03;17.40;;;;;;;;;;6275929;22;20434;-73
2022/11/20 05:48:55;;;;;;;36.83;17.52;;;;;;;;;;6275886;22;20323;-74
2022/11/20 05:51:23;;;;;;;33.72;17.75;;;;;;;;;;6275784;22;20008;-73
2022/11/20 05:53:50;;;;;;;28.70;16.83;;;;;;;;;;6274136;22;20020;-75
2022/11/20 05:56:19;;;;;;;27.48;14.90;;;;;;;;;;6248090;22;20016;-74
2022/11/20 05:58:47;;;;;;;25.77;16.02;;;;;;;;;;6275609;22;20026;-72
2022/11/20 06:01:16;;;;;;;24.55;14.50;;;;;;;;;;6275304;22;20442;-73
2022/11/20 06:03:45;;;;;;;25.08;13.55;;;;;;;;;;6275670;22;20091;-72
2022/11/20 06:06:14;;;;;;;24.27;14.40;;;;;;;;;;6275210;22;20016;-73
2022/11/20 06:08:41;;;;;;;22.60;13.43;;;;;;;;;;6274949;22;20066;-73
2022/11/20 06:11:10;;;;;;;21.63;12.60;;;;;;;;;;6274432;22;20091;-74
2022/11/20 06:13:38;;;;;;;25.05;14.50;;;;;;;;;;6275126;22;20400;-74
2022/11/20 06:16:09;;;;;;;24.48;13.93;;;;;;;;;;6248706;22;20035;-72
2022/11/20 06:18:37;;;;;;;23.98;13.15;;;;;;;;;;6274820;22;20446;-73
2022/11/20 06:21:15;;;;;;;20.40;13.30;;;;;;;;;;6275082;22;20016;-74
2022/11/20 06:23:43;;;;;;;23.98;13.20;;;;;;;;;;6275297;22;20063;-74
2022/11/20 06:26:16;;;;;;;18.88;12.43;;;;;;;;;;6248607;22;20020;-75
2022/11/20 06:28:44;;;;;;;20.77;11.88;;;;;;;;;;6248307;22;20401;-74
2022/11/20 06:31:13;;;;;;;18.73;10.88;;;;;;;;;;6275190;22;20012;-73
2022/11/20 06:33:41;;;;;;;16.25;9.40;;;;;;;;;;6275315;22;20015;-73
2022/11/20 06:36:10;;;;;;;16.10;9.95;;;;;;;;;;6275066;22;20023;-74
2022/11/20 06:38:38;;;;;;;13.50;9.55;;;;;;;;;;6275301;22;20016;-73
2022/11/20 06:41:07;;;;;;;16.00;9.13;;;;;;;;;;6276932;22;20066;-73
2022/11/20 06:43:34;;;;;;;15.68;9.27;;;;;;;;;;6277131;22;20019;-75
2022/11/20 06:46:02;;;;;;;14.25;9.52;;;;;;;;;;6277083;22;20069;-74
2022/11/20 06:48:29;;;;;;;15.25;8.77;;;;;;;;;;6276591;22;20015;-74
2022/11/20 06:50:57;;;;;;;11.90;7.72;;;;;;;;;;6276606;22;20015;-74
2022/11/20 06:53:25;;;;;;;12.65;8.27;;;;;;;;;;6276562;22;20016;-74
2022/11/20 06:55:53;;;;;;;12.20;7.75;;;;;;;;;;6276964;22;20350;-73
2022/11/20 06:58:20;;;;;;;12.85;8.90;;;;;;;;;;6277210;22;20019;-73
2022/11/20 07:00:48;;;;;;;13.20;8.10;;;;;;;;;;6277087;22;20073;-73
2022/11/20 07:03:15;;;;;;;11.55;7.15;;;;;;;;;;6277036;22;20434;-73
2022/11/20 07:05:43;;;;;;;13.32;8.25;;;;;;;;;;6276705;22;20022;-73
2022/11/20 07:08:11;;;;;;;13.82;8.35;;;;;;;;;;6276915;22;20015;-74
2022/11/20 07:10:38;;;;;;;12.90;8.38;;;;;;;;;;6277080;22;20012;-73
2022/11/20 07:13:06;;;;;;;13.35;8.90;;;;;;;;;;6277176;22;20023;-73
2022/11/20 07:15:34;;;;;;;25.52;19.67;;;;;;;;;;6276801;22;20023;-73
2022/11/20 07:18:02;;;;;;;31.02;25.45;;;;;;;;;;6276626;22;20015;-72
2022/11/20 07:20:29;;;;;;;32.42;27.20;;;;;;;;;;6276484;22;20011;-73
2022/11/20 07:22:57;;;;;;;22.80;15.30;;;;;;;;;;6277076;22;20089;-73
2022/11/20 07:25:25;;;;;;;23.08;12.57;;;;;;;;;;6276777;22;20012;-73
2022/11/20 07:27:53;;;;;;;21.42;10.90;;;;;;;;;;6276234;22;20015;-73
2022/11/20 07:30:20;;;;;;;16.80;9.68;;;;;;;;;;6276386;22;20087;-73
2022/11/20 07:32:48;;;;;;;20.33;11.57;;;;;;;;;;6276782;22;20015;-73
2022/11/20 07:35:16;;;;;;;19.42;11.60;;;;;;;;;;6276210;22;20027;-73
2022/11/20 07:37:45;;;;;;;21.65;12.48;;;;;;;;;;6249628;22;20015;-73
2022/11/20 07:40:13;;;;;;;21.27;12.07;;;;;;;;;;6276222;22;20015;-72
2022/11/20 07:42:48;;;;;;;21.38;10.57;;;;;;;;;;6276883;22;20097;-73
2022/11/20 07:45:15;;;;;;;19.27;10.10;;;;;;;;;;6276157;22;20062;-73
2022/11/20 07:47:42;;;;;;;20.23;11.57;;;;;;;;;;6276710;22;20077;-72
2022/11/20 07:50:10;;;;;;;20.48;12.82;;;;;;;;;;6276151;22;20012;-72
2022/11/20 07:52:38;;;;;;;24.45;14.77;;;;;;;;;;6276433;22;20551;-71
2022/11/20 07:55:06;;;;;;;24.90;13.60;;;;;;;;;;6275936;22;20073;-71
2022/11/20 07:57:33;;;;;;;25.70;14.07;;;;;;;;;;6276634;22;20023;-72
2022/11/20 08:00:00;;;;;;;23.73;12.88;;;;;;;;;;6276332;22;20094;-71
2022/11/20 08:02:41;;;;;;;22.65;12.57;;;;;;;;;;6276015;22;20060;-72
2022/11/20 08:05:09;;;;;;;25.23;13.00;;;;;;;;;;6276255;22;20114;-72
2022/11/20 08:07:38;;;;;;;21.92;12.13;;;;;;;;;;6276222;22;20015;-75
2022/11/20 08:10:06;;;;;;;22.88;12.60;;;;;;;;;;6276336;22;20039;-73
2022/11/20 08:15:20;;;;;;;24.80;13.02;;;;;;;;;;6275991;22;20012;-71
2022/11/20 08:17:47;;;;;;;21.85;13.32;;;;;;;;;;6276231;22;20016;-68
2022/11/20 08:20:35;;;;;;;21.75;12.98;;;;;;;;;;6248585;22;20020;-71
2022/11/20 08:23:05;;;;;;;22.58;12.52;;;;;;;;;;6274880;22;20023;-72
2022/11/20 08:25:33;;;;;;;22.80;12.93;;;;;;;;;;6275209;22;20035;-72
2022/11/20 08:28:02;;;;;;;25.35;12.90;;;;;;;;;;6275255;22;20020;-72
2022/11/20 08:30:45;;;;;;;22.50;13.20;;;;;;;;;;6275465;22;20016;-72
2022/11/20 08:33:13;;;;;;;28.35;14.80;;;;;;;;;;6272671;22;20019;-72
2022/11/20 08:35:41;;;;;;;24.63;14.88;;;;;;;;;;6275376;22;20020;-72
2022/11/20 08:38:10;;;;;;;28.63;14.77;;;;;;;;;;6248560;22;20069;-72
2022/11/20 08:40:37;;;;;;;26.10;13.25;;;;;;;;;;6275125;22;20077;-72
2022/11/20 08:43:05;;;;;;;26.13;15.30;;;;;;;;;;6275449;22;20020;-72
2022/11/20 08:45:32;;;;;;;26.63;15.45;;;;;;;;;;6275515;22;20040;-72
2022/11/20 08:48:02;;;;;;;29.92;15.60;;;;;;;;;;6275422;22;20469;-71
2022/11/20 08:50:31;;;;;;;28.38;15.65;;;;;;;;;;6275500;22;20461;-71
2022/11/20 08:53:06;;;;;;;26.02;15.13;;;;;;;;;;6275411;22;20669;-72
2022/11/20 08:55:35;;;;;;;28.55;15.18;;;;;;;;;;6275076;22;20024;-72
2022/11/20 08:58:06;;;;;;;30.73;15.77;;;;;;;;;;6275320;22;20012;-69
2022/11/20 09:00:34;;;;;;;29.48;15.40;;;;;;;;;;6274843;22;20011;-70
2022/11/20 09:03:02;;;;;;;29.60;16.60;;;;;;;;;;6274431;22;20081;-72
2022/11/20 09:05:30;;;;;;;30.25;16.67;;;;;;;;;;6275111;22;20018;-72
2022/11/20 09:07:58;;;;;;;28.48;16.65;;;;;;;;;;6275393;22;20015;-72
2022/11/20 09:10:26;;;;;;;33.05;16.60;;;;;;;;;;6275254;22;20446;-72
2022/11/20 09:12:54;;;;;;;31.88;16.83;;;;;;;;;;6275138;22;20024;-72
2022/11/20 09:15:22;;;;;;;29.30;16.65;;;;;;;;;;6275088;22;20069;-72
2022/11/20 09:17:57;;;;;;;32.22;18.25;;;;;;;;;;6275196;22;20024;-72
2022/11/20 09:20:25;;;;;;;;;;;;;;;;;;6275588;22;20015;-71
2022/11/20 09:22:52;;;;;;;34.10;18.40;;;;;;;;;;6274969;22;19919;-72
2022/11/20 09:25:20;;;;;;;35.42;18.38;;;;;;;;;;6274862;22;20065;-73
2022/11/20 09:27:48;;;;;;;39.13;20.77;;;;;;;;;;6274962;22;20020;-71
2022/11/20 09:30:15;;;;;;;30.48;19.13;;;;;;;;;;6275257;22;20020;-71
2022/11/20 09:32:44;;;;;;;33.83;20.23;;;;;;;;;;6275206;22;20023;-73
2022/11/20 09:35:12;;;;;;;39.78;20.23;;;;;;;;;;6274903;22;20019;-72
2022/11/20 09:37:39;;;;;;;38.58;20.33;;;;;;;;;;6274932;22;20016;-72
2022/11/20 09:40:07;;;;;;;37.58;20.00;;;;;;;;;;6275105;22;20385;-72
2022/11/20 09:42:37;;;;;;;41.15;19.83;;;;;;;;;;6274839;22;20019;-73
2022/11/20 09:45:34;;;;;;;36.30;18.92;;;;;;;;;;6274941;22;20012;-72
2022/11/20 09:48:09;;;;;;;37.10;19.60;;;;;;;;;;6250339;22;20029;-73
2022/11/20 09:50:47;;;;;;;40.78;20.20;;;;;;;;;;6275014;22;20015;-74
2022/11/20 09:53:21;;;;;;;42.15;20.70;;;;;;;;;;6274995;22;20020;-73
2022/11/20 09:55:49;;;;;;;43.60;23.02;;;;;;;;;;6274606;22;20023;-77
2022/11/20 09:58:23;;;;;;;46.30;22.77;;;;;;;;;;6275050;22;20020;-77
2022/11/20 10:00:51;;;;;;;46.90;22.77;;;;;;;;;;6275058;22;20087;-77
2022/11/20 10:03:23;;;;;;;43.20;21.45;;;;;;;;;;6275076;22;20337;-78
2022/11/20 10:05:55;;;;;;;46.17;23.15;;;;;;;;;;6275169;22;20012;-76
2022/11/20 10:08:24;;;;;;;46.95;23.30;;;;;;;;;;6274981;22;20019;-77
2022/11/20 10:11:04;;;;;;;40.55;23.17;;;;;;;;;;6274964;22;20070;-78
2022/11/20 10:13:44;;;;;;;47.90;22.60;;;;;;;;;;6275463;22;20054;-77
2022/11/20 10:16:11;;;;;;;38.00;21.75;;;;;;;;;;6251167;22;20016;-76
2022/11/20 10:18:39;;;;;;;46.70;23.90;;;;;;;;;;6277451;22;20070;-77
2022/11/20 10:21:13;;;;;;;40.75;22.10;;;;;;;;;;6276838;22;20094;-79
2022/11/20 10:23:40;;;;;;;51.42;24.33;;;;;;;;;;6249945;22;20026;-76
2022/11/20 10:26:18;;;;;;;46.97;24.02;;;;;;;;;;6276887;22;20015;-77
2022/11/20 10:29:17;;;;;;;45.58;24.50;;;;;;;;;;6276863;22;20438;-77
2022/11/20 10:31:46;;;;;;;49.72;25.58;;;;;;;;;;6209636;22;20019;-75
2022/11/20 10:34:26;;;;;;;55.38;26.88;;;;;;;;;;6276665;22;20039;-75
2022/11/20 10:36:56;;;;;;;60.95;29.95;;;;;;;;;;6276563;22;20446;-74
2022/11/20 10:39:36;;;;;;;60.42;30.63;;;;;;;;;;6250022;22;20040;-73
2022/11/20 10:42:05;;;;;;;57.60;27.40;;;;;;;;;;6276366;22;20019;-73
2022/11/20 10:47:23;;;;;;;49.33;26.35;;;;;;;;;;6276574;22;20437;-73
2022/11/20 10:49:53;;;;;;;51.67;27.77;;;;;;;;;;6276647;22;20374;-73
2022/11/20 10:52:20;;;;;;;47.75;24.67;;;;;;;;;;6276690;22;20020;-72
2022/11/20 10:54:52;;;;;;;47.45;26.75;;;;;;;;;;6250095;22;20019;-73
2022/11/20 10:57:33;;;;;;;52.90;28.17;;;;;;;;;;6275873;22;20085;-73
2022/11/20 11:00:05;;;;;;;58.28;29.30;;;;;;;;;;6274154;22;20042;-72
2022/11/20 11:02:35;;;;;;;53.05;28.23;;;;;;;;;;6274247;22;20069;-72
2022/11/20 11:05:11;;;;;;;59.45;30.65;;;;;;;;;;6274694;22;20016;-73
2022/11/20 11:07:41;;;;;;;50.65;29.30;;;;;;;;;;6276591;22;20015;-73
2022/11/20 11:10:14;;;;;;;59.47;32.25;;;;;;;;;;6276206;22;20012;-74
2022/11/20 11:12:44;;;;;;;53.17;28.55;;;;;;;;;;6276301;22;20083;-72
2022/11/20 11:15:15;;;;;;;52.38;28.52;;;;;;;;;;6276300;22;20019;-75
2022/11/20 11:17:48;;;;;;;60.03;30.35;;;;;;;;;;6249238;22;20020;-74
2022/11/20 11:20:21;;;;;;;55.72;29.55;;;;;;;;;;6276845;22;20027;-76
2022/11/20 11:22:48;;;;;;;53.03;28.05;;;;;;;;;;6277014;22;20077;-73
2022/11/20 11:25:35;;;;;;;44.50;25.35;;;;;;;;;;6276208;22;20011;-73
2022/11/20 11:28:19;;;;;;;46.75;25.48;;;;;;;;;;6276368;22;20016;-75
2022/11/20 11:30:50;;;;;;;38.30;21.77;;;;;;;;;;6277722;22;20008;-73
2022/11/20 11:33:22;;;;;;;43.20;22.10;;;;;;;;;;6249643;22;20389;-74
2022/11/20 11:35:52;;;;;;;42.67;23.35;;;;;;;;;;6276956;22;20019;-73
2022/11/20 11:38:23;;;;;;;46.83;23.38;;;;;;;;;;6276761;22;20069;-73
2022/11/20 11:40:54;;;;;;;40.85;23.45;;;;;;;;;;6276679;22;20492;-74
2022/11/20 11:46:22;;;;;;;40.63;21.08;;;;;;;;;;6280188;22;20593;-76
2022/11/20 11:49:22;;;;;;;42.40;22.42;;;;;;;;;;6277466;22;20026;-74
2022/11/20 11:51:56;;;;;;;39.00;20.45;;;;;;;;;;6185572;22;20031;-74
2022/11/20 11:54:37;;;;;;;37.38;21.05;;;;;;;;;;6276450;22;20036;-73
2022/11/20 11:57:31;;;;;;;36.80;21.33;;;;;;;;;;6276747;22;20024;-73
2022/11/20 12:00:01;;;;;;;41.38;22.65;;;;;;;;;;6230768;22;20099;-76
2022/11/20 12:02:49;;;;;;;38.90;23.15;;;;;;;;;;6251612;22;20027;-77
2022/11/20 12:05:17;;;;;;;40.58;22.13;;;;;;;;;;6277907;22;20031;-77
2022/11/20 12:07:48;;;;;;;42.63;25.60;;;;;;;;;;6276805;22;20015;-77
2022/11/20 12:10:19;;;;;;;77.30;47.53;;;;;;;;;;6275888;22;20070;-76
2022/11/20 12:12:49;;;;;;;52.58;31.70;;;;;;;;;;6276863;22;20035;-75
2022/11/20 12:15:24;;;;;;;39.90;24.60;;;;;;;;;;6276829;22;20074;-76
2022/11/20 12:17:51;;;;;;;38.38;24.30;;;;;;;;;;6275877;22;20501;-76
2022/11/20 12:20:20;;;;;;;59.05;33.85;;;;;;;;;;6275950;22;20011;-76
2022/11/20 12:22:54;;;;;;;55.03;33.70;;;;;;;;;;6275002;22;20969;-74
2022/11/20 12:25:27;;;;;;;49.45;28.55;;;;;;;;;;6275215;22;20019;-75
2022/11/20 12:27:55;;;;;;;46.55;29.70;;;;;;;;;;6275535;22;20020;-73
2022/11/20 12:30:24;;;;;;;41.15;25.50;;;;;;;;;;6275462;22;20039;-73
2022/11/20 12:33:07;;;;;;;48.97;27.33;;;;;;;;;;6275468;22;20090;-75
2022/11/20 12:35:53;;;;;;;58.15;33.65;;;;;;;;;;6275797;22;20092;-74
2022/11/20 12:38:39;;;;;;;42.50;26.48;;;;;;;;;;6279080;22;20469;-75
2022/11/20 12:47:29;;;;;;;38.70;23.25;;;;;;;;;;6276184;22;20019;-77
2022/11/20 12:50:01;;;;;;;53.40;30.35;;;;;;;;;;6275530;22;20046;-73
2022/11/20 12:53:01;;;;;;;45.33;29.67;;;;;;;;;;6276242;22;20452;-75
2022/11/20 12:55:34;;;;;;;52.95;30.70;;;;;;;;;;6184576;22;20474;-76
2022/11/20 12:58:20;;;;;;;37.55;23.80;;;;;;;;;;6275859;22;20026;-75
2022/11/20 13:00:55;;;;;;;38.17;22.88;;;;;;;;;;6275809;22;20405;-76
2022/11/20 13:03:33;;;;;;;34.50;22.52;;;;;;;;;;6275774;22;20391;-76
2022/11/20 13:06:16;;;;;;;39.25;23.10;;;;;;;;;;6275442;22;20087;-75
2022/11/20 13:08:49;;;;;;;42.33;24.95;;;;;;;;;;6275798;22;20043;-74
2022/11/20 13:11:28;;;;;;;49.60;27.80;;;;;;;;;;6275591;22;20018;-75
2022/11/20 13:13:58;;;;;;;37.13;23.60;;;;;;;;;;6275354;22;20377;-76
2022/11/20 13:16:46;;;;;;;47.17;27.08;;;;;;;;;;6275485;22;20027;-77
2022/11/20 13:19:16;;;;;;;44.40;26.60;;;;;;;;;;6255240;22;20023;-76
2022/11/20 13:21:46;;;;;;;38.55;23.33;;;;;;;;;;6275380;22;20015;-74
2022/11/20 13:24:19;;;;;;;37.38;23.35;;;;;;;;;;6275512;22;20453;-75
2022/11/20 13:26:47;;;;;;;37.33;22.77;;;;;;;;;;6276025;22;20012;-78
2022/11/20 13:29:19;;;;;;;37.75;23.95;;;;;;;;;;6275953;22;20095;-73
2022/11/20 13:31:47;;;;;;;37.50;24.23;;;;;;;;;;6275168;22;20026;-77
2022/11/20 13:34:25;;;;;;;47.38;29.60;;;;;;;;;;6277772;22;20065;-77
2022/11/20 13:36:56;;;;;;;68.18;40.53;;;;;;;;;;6276093;22;20020;-80
2022/11/20 13:39:25;;;;;;;52.05;31.63;;;;;;;;;;6275916;22;20024;-81
2022/11/20 13:41:57;;;;;;;68.18;40.70;;;;;;;;;;6275364;22;20090;-70
2022/11/20 13:44:27;;;;;;;69.95;42.08;;;;;;;;;;6274756;22;20050;-71
2022/11/20 13:46:55;;;;;;;169.98;114.47;;;;;;;;;;6274903;22;20019;-71
2022/11/20 13:49:38;;;;;;;67.75;45.55;;;;;;;;;;6275424;22;20837;-71
2022/11/20 13:52:23;;;;;;;56.85;37.95;;;;;;;;;;6276463;22;20341;-69
2022/11/20 13:55:09;;;;;;;70.25;45.78;;;;;;;;;;6276883;22;20342;-71
2022/11/20 13:58:03;;;;;;;74.85;47.53;;;;;;;;;;6277483;22;20078;-69
2022/11/20 14:00:30;;;;;;;73.38;47.80;;;;;;;;;;6272778;22;20016;-70
2022/11/20 14:03:01;;;;;;;72.68;45.58;;;;;;;;;;6277148;22;20019;-73
2022/11/20 14:05:32;;;;;;;44.08;26.85;;;;;;;;;;6277622;22;20050;-70
2022/11/20 14:07:59;;;;;;;45.38;26.10;;;;;;;;;;6277548;22;20062;-73
2022/11/20 14:10:28;;;;;;;69.30;43.15;;;;;;;;;;6277619;22;20380;-70
2022/11/20 14:12:59;;;;;;;60.85;39.30;;;;;;;;;;6277238;22;20082;-68
2022/11/20 14:15:31;;;;;;;43.90;25.27;;;;;;;;;;6277182;22;20437;-68
2022/11/20 14:17:59;;;;;;;36.10;23.23;;;;;;;;;;6277140;22;20020;-67
2022/11/20 14:20:28;;;;;;;41.15;24.10;;;;;;;;;;6277119;22;20055;-68
2022/11/20 14:22:56;;;;;;;37.50;23.55;;;;;;;;;;6276632;22;20038;-67
2022/11/20 14:25:27;;;;;;;52.78;30.73;;;;;;;;;;6277015;22;20464;-67
2022/11/20 14:27:55;;;;;;;57.10;30.95;;;;;;;;;;6275868;22;20016;-71
2022/11/20 14:30:28;;;;;;;52.08;30.75;;;;;;;;;;6275735;22;20081;-67
2022/11/20 14:33:02;;;;;;;49.45;29.00;;;;;;;;;;6276583;22;20065;-68
2022/11/20 14:35:32;;;;;;;46.60;28.35;;;;;;;;;;6277400;22;20039;-68
2022/11/20 14:37:59;;;;;;;39.95;25.08;;;;;;;;;;6277488;22;20834;-70
2022/11/20 14:40:29;;;;;;;39.38;25.33;;;;;;;;;;6251205;22;20375;-67
2022/11/20 14:42:57;;;;;;;40.75;25.83;;;;;;;;;;6250204;22;20015;-68
2022/11/20 14:45:25;;;;;;;40.65;24.35;;;;;;;;;;6277213;22;20019;-70
2022/11/20 14:47:54;;;;;;;37.17;22.85;;;;;;;;;;6277300;22;20011;-67
2022/11/20 14:50:24;;;;;;;38.42;22.13;;;;;;;;;;6277270;22;20015;-68
2022/11/20 14:52:52;;;;;;;32.95;22.00;;;;;;;;;;6276733;22;20016;-68
2022/11/20 14:55:27;;;;;;;37.92;23.70;;;;;;;;;;6276826;22;20469;-68
2022/11/20 14:57:59;;;;;;;38.53;23.67;;;;;;;;;;6276960;22;20091;-67
2022/11/20 15:00:27;;;;;;;77.63;49.83;;;;;;;;;;6276554;22;20082;-68